Airfield :
LOGIN :

Register | Disclaimer

   EN    FR    IT 

 










Legend :    VFR   Marginal VFR   IFR   Intensive IFR   Very Intensive IFR
Visi :
Ceiling :
>= 8 km
>= 3000ft
5 to 8 km
1000 to 3000 ft
1500m to 5 km
500 to 1000 ft
800 to 1500m
200 to 500 ft
< 800m
< 200 ft
Symbols :   Thunderstorms  Fog  Heavy snow  Heavy precipitations  Wind > 20 kt
SIGMETs :     Misc.  Thunderstorms  Icing  Turbulence  Mountain Waves  Volcanic Ashes






- Airport Elevation : 75 ft
- IATA code : MRH


EGYM - RAF Marham

CURRENT METAR :
  • 170450Z 15004KT 9999 FEW040 05/05 Q1006 BLU

EXPIRED METARs :
  • 170350Z 16004KT 8000 BR SKC 04/03 Q1006 BLU
  • 170250Z 13004KT CAVOK 05/05 Q1006 BLU

TAF TAF EGYM
Valid from the 17 at 06:00 until the 17 at 15:00 UTC


170417Z 1706/1715 19006KT 9999 FEW045
TEMPO 1706/1709 5000 BR
PROB30
TEMPO 1706/1708 3000 BR MIFG SCT005
TEMPO 1712/1715 6000 -SHRA SCT024
PROB30
TEMPO 1714/1715 19015G25KT 4000 SHRA SCT010 BKN020CB



MET'MAP, your aeronautical weather chart ! - Copyright ORBIFLY December 2007 - Disclaimer

ORBIFLY MET'MAP TEAM :

Programming & Development : Alexandra Zaïnal
Concept & Development : Baudouin d'Aumeries
Co-Development & Prog : Marc-Olivier Méhu
Technical & hardware support : Manuel Goepfert

Contact : metmap@orbifly.com




SOURCES & CREDITS :

   NOAA